Terminal Aerodrome Forecast
Issued by NWS

Home | Current Version | Previous Version | Graphics & Text | Print | Product List | Glossary On
Versions: 1 2 3 4 5 6 7 8 9 10 11 12 13 14 15 16 17 18
356
FTUS43 KICT 281143
TAFHUT
TAF
KHUT 281143Z 2812/2912 31006KT P6SM VCSH SCT070 BKN250
     FM281500 04006KT P6SM SCT100 BKN250
     FM281700 09006KT P6SM SCT040
     FM290200 13008KT P6SM VCTS SCT060CB BKN250=

USA.gov is the U.S. government's official web portal to all federal, state and local government web resources and services.